sensor_id;sensor_type;location;lat;lon;timestamp;temperature;humidity
41720;DHT22;27405;53.316;-6.294;2023-07-02T00:01:19;13.90;88.00
41720;DHT22;27405;53.316;-6.294;2023-07-02T00:03:44;13.90;88.30
41720;DHT22;27405;53.316;-6.294;2023-07-02T00:06:10;13.90;88.40
41720;DHT22;27405;53.316;-6.294;2023-07-02T00:08:36;13.80;88.50
41720;DHT22;27405;53.316;-6.294;2023-07-02T00:11:01;13.80;88.80
41720;DHT22;27405;53.316;-6.294;2023-07-02T00:13:27;13.80;89.00
41720;DHT22;27405;53.316;-6.294;2023-07-02T00:15:52;13.80;89.20
41720;DHT22;27405;53.316;-6.294;2023-07-02T00:18:18;13.70;89.20
41720;DHT22;27405;53.316;-6.294;2023-07-02T00:20:44;13.70;89.40
41720;DHT22;27405;53.316;-6.294;2023-07-02T00:23:09;13.70;89.60
41720;DHT22;27405;53.316;-6.294;2023-07-02T00:25:36;13.70;89.70
41720;DHT22;27405;53.316;-6.294;2023-07-02T00:28:02;13.70;89.90
41720;DHT22;27405;53.316;-6.294;2023-07-02T00:30:28;13.60;89.90
41720;DHT22;27405;53.316;-6.294;2023-07-02T00:32:53;13.60;90.00
41720;DHT22;27405;53.316;-6.294;2023-07-02T00:35:19;13.60;90.10
41720;DHT22;27405;53.316;-6.294;2023-07-02T00:37:45;13.50;90.10
41720;DHT22;27405;53.316;-6.294;2023-07-02T00:40:11;13.50;90.20
41720;DHT22;27405;53.316;-6.294;2023-07-02T00:42:36;13.50;90.50
41720;DHT22;27405;53.316;-6.294;2023-07-02T00:45:02;13.50;90.30
41720;DHT22;27405;53.316;-6.294;2023-07-02T00:47:32;13.50;90.30
41720;DHT22;27405;53.316;-6.294;2023-07-02T00:49:59;13.50;90.40
41720;DHT22;27405;53.316;-6.294;2023-07-02T00:52:25;13.50;90.50
41720;DHT22;27405;53.316;-6.294;2023-07-02T00:54:51;13.50;90.60
41720;DHT22;27405;53.316;-6.294;2023-07-02T00:57:17;13.50;90.80
41720;DHT22;27405;53.316;-6.294;2023-07-02T00:59:43;13.50;90.80
41720;DHT22;27405;53.316;-6.294;2023-07-02T01:02:09;13.60;90.90
41720;DHT22;27405;53.316;-6.294;2023-07-02T01:04:36;13.60;90.90
41720;DHT22;27405;53.316;-6.294;2023-07-02T01:07:02;13.60;90.90
41720;DHT22;27405;53.316;-6.294;2023-07-02T01:09:34;13.60;90.90
41720;DHT22;27405;53.316;-6.294;2023-07-02T01:12:03;13.60;90.90
41720;DHT22;27405;53.316;-6.294;2023-07-02T01:14:40;13.60;91.00
41720;DHT22;27405;53.316;-6.294;2023-07-02T01:17:06;13.60;91.00
41720;DHT22;27405;53.316;-6.294;2023-07-02T01:19:54;13.50;91.00
41720;DHT22;27405;53.316;-6.294;2023-07-02T01:22:25;13.50;91.10
41720;DHT22;27405;53.316;-6.294;2023-07-02T01:24:52;13.50;91.10
41720;DHT22;27405;53.316;-6.294;2023-07-02T01:27:19;13.40;91.10
41720;DHT22;27405;53.316;-6.294;2023-07-02T01:29:45;13.40;91.20
41720;DHT22;27405;53.316;-6.294;2023-07-02T01:32:14;13.40;91.30
41720;DHT22;27405;53.316;-6.294;2023-07-02T01:34:40;13.40;91.30
41720;DHT22;27405;53.316;-6.294;2023-07-02T01:37:06;13.30;91.30
41720;DHT22;27405;53.316;-6.294;2023-07-02T01:39:33;13.30;91.40
41720;DHT22;27405;53.316;-6.294;2023-07-02T01:42:15;13.30;91.40
41720;DHT22;27405;53.316;-6.294;2023-07-02T01:44:43;13.30;91.50
41720;DHT22;27405;53.316;-6.294;2023-07-02T01:47:08;13.30;91.50
41720;DHT22;27405;53.316;-6.294;2023-07-02T01:49:34;13.30;91.50
41720;DHT22;27405;53.316;-6.294;2023-07-02T01:52:01;13.30;91.50
41720;DHT22;27405;53.316;-6.294;2023-07-02T01:54:28;13.40;91.60
41720;DHT22;27405;53.316;-6.294;2023-07-02T01:56:54;13.40;91.60
41720;DHT22;27405;53.316;-6.294;2023-07-02T01:59:20;13.50;91.50
41720;DHT22;27405;53.316;-6.294;2023-07-02T02:01:46;13.50;91.50
41720;DHT22;27405;53.316;-6.294;2023-07-02T02:04:12;13.50;91.40
41720;DHT22;27405;53.316;-6.294;2023-07-02T02:06:39;13.50;91.40
41720;DHT22;27405;53.316;-6.294;2023-07-02T02:09:05;13.60;91.40
41720;DHT22;27405;53.316;-6.294;2023-07-02T02:11:32;13.60;91.30
41720;DHT22;27405;53.316;-6.294;2023-07-02T02:13:59;13.60;91.20
41720;DHT22;27405;53.316;-6.294;2023-07-02T02:16:27;13.70;91.20
41720;DHT22;27405;53.316;-6.294;2023-07-02T02:18:53;13.70;91.20
41720;DHT22;27405;53.316;-6.294;2023-07-02T02:21:19;13.70;91.10
41720;DHT22;27405;53.316;-6.294;2023-07-02T02:23:45;13.70;91.10
41720;DHT22;27405;53.316;-6.294;2023-07-02T02:26:11;13.70;91.10
41720;DHT22;27405;53.316;-6.294;2023-07-02T02:28:37;13.80;91.00
41720;DHT22;27405;53.316;-6.294;2023-07-02T02:31:02;13.80;91.00
41720;DHT22;27405;53.316;-6.294;2023-07-02T02:33:29;13.80;91.00
41720;DHT22;27405;53.316;-6.294;2023-07-02T02:35:55;13.80;90.90
41720;DHT22;27405;53.316;-6.294;2023-07-02T02:38:21;13.80;90.90
41720;DHT22;27405;53.316;-6.294;2023-07-02T02:40:46;13.90;90.90
41720;DHT22;27405;53.316;-6.294;2023-07-02T02:43:12;13.80;90.90
41720;DHT22;27405;53.316;-6.294;2023-07-02T02:45:38;13.80;90.90
41720;DHT22;27405;53.316;-6.294;2023-07-02T02:48:04;13.80;90.90
41720;DHT22;27405;53.316;-6.294;2023-07-02T02:50:30;13.90;91.00
41720;DHT22;27405;53.316;-6.294;2023-07-02T02:52:55;13.90;91.00
41720;DHT22;27405;53.316;-6.294;2023-07-02T02:55:21;13.90;91.00
41720;DHT22;27405;53.316;-6.294;2023-07-02T02:57:47;13.90;91.00
41720;DHT22;27405;53.316;-6.294;2023-07-02T03:00:13;13.90;91.00
41720;DHT22;27405;53.316;-6.294;2023-07-02T03:02:38;13.90;90.90
41720;DHT22;27405;53.316;-6.294;2023-07-02T03:05:06;13.90;90.90
41720;DHT22;27405;53.316;-6.294;2023-07-02T03:07:32;13.90;90.90
41720;DHT22;27405;53.316;-6.294;2023-07-02T03:09:58;13.90;90.90
41720;DHT22;27405;53.316;-6.294;2023-07-02T03:12:25;13.90;90.90
41720;DHT22;27405;53.316;-6.294;2023-07-02T03:14:51;13.90;90.90
41720;DHT22;27405;53.316;-6.294;2023-07-02T03:17:20;13.90;90.80
41720;DHT22;27405;53.316;-6.294;2023-07-02T03:19:46;13.90;90.80
41720;DHT22;27405;53.316;-6.294;2023-07-02T03:22:12;13.80;90.80
41720;DHT22;27405;53.316;-6.294;2023-07-02T03:24:38;13.80;90.90
41720;DHT22;27405;53.316;-6.294;2023-07-02T03:27:03;13.70;90.90
41720;DHT22;27405;53.316;-6.294;2023-07-02T03:29:29;13.60;91.00
41720;DHT22;27405;53.316;-6.294;2023-07-02T03:31:55;13.50;91.10
41720;DHT22;27405;53.316;-6.294;2023-07-02T03:34:20;13.40;91.10
41720;DHT22;27405;53.316;-6.294;2023-07-02T03:36:48;13.40;91.20
41720;DHT22;27405;53.316;-6.294;2023-07-02T03:39:13;13.30;91.20
41720;DHT22;27405;53.316;-6.294;2023-07-02T03:41:39;13.30;91.20
41720;DHT22;27405;53.316;-6.294;2023-07-02T03:44:05;13.30;91.30
41720;DHT22;27405;53.316;-6.294;2023-07-02T03:46:31;13.30;91.30
41720;DHT22;27405;53.316;-6.294;2023-07-02T03:48:57;13.20;91.40
41720;DHT22;27405;53.316;-6.294;2023-07-02T03:51:22;13.20;91.40
41720;DHT22;27405;53.316;-6.294;2023-07-02T03:53:48;13.30;91.50
41720;DHT22;27405;53.316;-6.294;2023-07-02T03:56:14;13.30;91.50
41720;DHT22;27405;53.316;-6.294;2023-07-02T03:58:40;13.30;91.50
41720;DHT22;27405;53.316;-6.294;2023-07-02T04:01:06;13.30;91.50
41720;DHT22;27405;53.316;-6.294;2023-07-02T04:03:31;13.40;91.40
41720;DHT22;27405;53.316;-6.294;2023-07-02T04:05:57;13.40;91.30
41720;DHT22;27405;53.316;-6.294;2023-07-02T04:08:23;13.50;91.30
41720;DHT22;27405;53.316;-6.294;2023-07-02T04:10:50;13.50;91.20
41720;DHT22;27405;53.316;-6.294;2023-07-02T04:13:16;13.60;91.20
41720;DHT22;27405;53.316;-6.294;2023-07-02T04:15:42;13.60;91.10
41720;DHT22;27405;53.316;-6.294;2023-07-02T04:18:08;13.70;91.10
41720;DHT22;27405;53.316;-6.294;2023-07-02T04:20:33;13.70;91.00
41720;DHT22;27405;53.316;-6.294;2023-07-02T04:22:59;13.70;91.00
41720;DHT22;27405;53.316;-6.294;2023-07-02T04:25:25;13.70;90.90
41720;DHT22;27405;53.316;-6.294;2023-07-02T04:27:51;13.80;90.90
41720;DHT22;27405;53.316;-6.294;2023-07-02T04:30:21;13.80;90.90
41720;DHT22;27405;53.316;-6.294;2023-07-02T04:32:47;13.80;90.90
41720;DHT22;27405;53.316;-6.294;2023-07-02T04:35:13;13.80;90.90
41720;DHT22;27405;53.316;-6.294;2023-07-02T04:37:38;13.80;90.80
41720;DHT22;27405;53.316;-6.294;2023-07-02T04:40:05;13.80;90.80
41720;DHT22;27405;53.316;-6.294;2023-07-02T04:42:38;13.80;90.70
41720;DHT22;27405;53.316;-6.294;2023-07-02T04:45:05;13.90;90.70
41720;DHT22;27405;53.316;-6.294;2023-07-02T04:47:31;13.90;90.60
41720;DHT22;27405;53.316;-6.294;2023-07-02T04:49:57;13.90;90.60
41720;DHT22;27405;53.316;-6.294;2023-07-02T04:52:23;13.90;90.50
41720;DHT22;27405;53.316;-6.294;2023-07-02T04:54:48;14.00;90.50
41720;DHT22;27405;53.316;-6.294;2023-07-02T04:57:14;13.90;90.50
41720;DHT22;27405;53.316;-6.294;2023-07-02T04:59:43;14.00;90.40
41720;DHT22;27405;53.316;-6.294;2023-07-02T05:02:09;14.00;90.40
41720;DHT22;27405;53.316;-6.294;2023-07-02T05:04:35;14.00;90.40
41720;DHT22;27405;53.316;-6.294;2023-07-02T05:07:01;14.00;90.40
41720;DHT22;27405;53.316;-6.294;2023-07-02T05:09:26;14.10;90.40
41720;DHT22;27405;53.316;-6.294;2023-07-02T05:11:52;14.10;90.40
41720;DHT22;27405;53.316;-6.294;2023-07-02T05:14:18;14.10;90.40
41720;DHT22;27405;53.316;-6.294;2023-07-02T05:16:44;14.10;90.40
41720;DHT22;27405;53.316;-6.294;2023-07-02T05:19:09;14.10;90.30
41720;DHT22;27405;53.316;-6.294;2023-07-02T05:21:35;14.10;90.30
41720;DHT22;27405;53.316;-6.294;2023-07-02T05:24:01;14.20;90.40
41720;DHT22;27405;53.316;-6.294;2023-07-02T05:26:26;14.20;90.40
41720;DHT22;27405;53.316;-6.294;2023-07-02T05:28:53;14.20;90.30
41720;DHT22;27405;53.316;-6.294;2023-07-02T05:31:19;14.20;90.30
41720;DHT22;27405;53.316;-6.294;2023-07-02T05:33:44;14.20;90.30
41720;DHT22;27405;53.316;-6.294;2023-07-02T05:36:10;14.30;90.40
41720;DHT22;27405;53.316;-6.294;2023-07-02T05:38:36;14.30;90.50
41720;DHT22;27405;53.316;-6.294;2023-07-02T05:41:02;14.30;90.40
41720;DHT22;27405;53.316;-6.294;2023-07-02T05:43:28;14.30;90.40
41720;DHT22;27405;53.316;-6.294;2023-07-02T05:45:54;14.30;90.40
41720;DHT22;27405;53.316;-6.294;2023-07-02T05:48:20;14.30;90.40
41720;DHT22;27405;53.316;-6.294;2023-07-02T05:50:45;14.40;90.40
41720;DHT22;27405;53.316;-6.294;2023-07-02T05:53:11;14.40;90.30
41720;DHT22;27405;53.316;-6.294;2023-07-02T05:55:37;14.40;90.60
41720;DHT22;27405;53.316;-6.294;2023-07-02T05:58:03;14.40;90.20
41720;DHT22;27405;53.316;-6.294;2023-07-02T06:00:29;14.50;90.20
41720;DHT22;27405;53.316;-6.294;2023-07-02T06:02:54;14.50;90.10
41720;DHT22;27405;53.316;-6.294;2023-07-02T06:05:20;14.50;90.00
41720;DHT22;27405;53.316;-6.294;2023-07-02T06:07:46;14.50;90.10
41720;DHT22;27405;53.316;-6.294;2023-07-02T06:10:12;14.60;90.10
41720;DHT22;27405;53.316;-6.294;2023-07-02T06:12:38;14.60;90.00
41720;DHT22;27405;53.316;-6.294;2023-07-02T06:15:04;14.60;90.00
41720;DHT22;27405;53.316;-6.294;2023-07-02T06:17:30;14.70;90.00
41720;DHT22;27405;53.316;-6.294;2023-07-02T06:19:58;14.70;90.00
41720;DHT22;27405;53.316;-6.294;2023-07-02T06:22:24;14.70;90.00
41720;DHT22;27405;53.316;-6.294;2023-07-02T06:24:50;14.80;89.80
41720;DHT22;27405;53.316;-6.294;2023-07-02T06:27:15;14.90;89.50
41720;DHT22;27405;53.316;-6.294;2023-07-02T06:29:41;14.90;89.40
41720;DHT22;27405;53.316;-6.294;2023-07-02T06:32:07;14.90;89.30
41720;DHT22;27405;53.316;-6.294;2023-07-02T06:34:32;15.00;89.10
41720;DHT22;27405;53.316;-6.294;2023-07-02T06:36:58;15.00;89.00
41720;DHT22;27405;53.316;-6.294;2023-07-02T06:39:24;15.10;88.70
41720;DHT22;27405;53.316;-6.294;2023-07-02T06:41:49;15.10;88.40
41720;DHT22;27405;53.316;-6.294;2023-07-02T06:44:15;15.10;88.30
41720;DHT22;27405;53.316;-6.294;2023-07-02T06:46:41;15.00;88.00
41720;DHT22;27405;53.316;-6.294;2023-07-02T06:49:06;15.10;88.10
41720;DHT22;27405;53.316;-6.294;2023-07-02T06:51:32;15.10;88.20
41720;DHT22;27405;53.316;-6.294;2023-07-02T06:53:59;15.20;88.20
41720;DHT22;27405;53.316;-6.294;2023-07-02T06:56:25;15.20;88.00
41720;DHT22;27405;53.316;-6.294;2023-07-02T06:58:51;15.20;87.90
41720;DHT22;27405;53.316;-6.294;2023-07-02T07:01:16;15.20;87.90
41720;DHT22;27405;53.316;-6.294;2023-07-02T07:03:42;15.30;88.00
41720;DHT22;27405;53.316;-6.294;2023-07-02T07:06:08;15.30;88.00
41720;DHT22;27405;53.316;-6.294;2023-07-02T07:08:37;15.30;88.00
41720;DHT22;27405;53.316;-6.294;2023-07-02T07:11:03;15.30;87.90
41720;DHT22;27405;53.316;-6.294;2023-07-02T07:13:28;15.40;87.90
41720;DHT22;27405;53.316;-6.294;2023-07-02T07:15:54;15.40;87.70
41720;DHT22;27405;53.316;-6.294;2023-07-02T07:18:20;15.40;87.60
41720;DHT22;27405;53.316;-6.294;2023-07-02T07:20:45;15.50;87.40
41720;DHT22;27405;53.316;-6.294;2023-07-02T07:23:11;15.50;87.20
41720;DHT22;27405;53.316;-6.294;2023-07-02T07:25:37;15.50;87.10
41720;DHT22;27405;53.316;-6.294;2023-07-02T07:28:02;15.50;87.10
41720;DHT22;27405;53.316;-6.294;2023-07-02T07:30:28;15.60;87.00
41720;DHT22;27405;53.316;-6.294;2023-07-02T07:32:54;15.60;87.00
41720;DHT22;27405;53.316;-6.294;2023-07-02T07:35:21;15.70;86.90
41720;DHT22;27405;53.316;-6.294;2023-07-02T07:37:47;15.80;86.40
41720;DHT22;27405;53.316;-6.294;2023-07-02T07:40:14;15.80;86.00
41720;DHT22;27405;53.316;-6.294;2023-07-02T07:42:41;15.90;85.80
41720;DHT22;27405;53.316;-6.294;2023-07-02T07:45:08;15.90;85.60
41720;DHT22;27405;53.316;-6.294;2023-07-02T07:47:34;15.90;85.40
41720;DHT22;27405;53.316;-6.294;2023-07-02T07:50:00;16.00;85.40
41720;DHT22;27405;53.316;-6.294;2023-07-02T07:52:25;16.10;85.10
41720;DHT22;27405;53.316;-6.294;2023-07-02T07:54:51;16.10;84.70
41720;DHT22;27405;53.316;-6.294;2023-07-02T07:57:17;16.10;84.70
41720;DHT22;27405;53.316;-6.294;2023-07-02T07:59:42;16.20;84.70
41720;DHT22;27405;53.316;-6.294;2023-07-02T08:02:08;16.30;84.40
41720;DHT22;27405;53.316;-6.294;2023-07-02T08:04:34;16.30;84.20
41720;DHT22;27405;53.316;-6.294;2023-07-02T08:07:00;16.30;84.00
41720;DHT22;27405;53.316;-6.294;2023-07-02T08:09:25;16.30;83.90
41720;DHT22;27405;53.316;-6.294;2023-07-02T08:11:51;16.30;83.70
41720;DHT22;27405;53.316;-6.294;2023-07-02T08:14:17;16.30;83.90
41720;DHT22;27405;53.316;-6.294;2023-07-02T08:16:44;16.40;83.40
41720;DHT22;27405;53.316;-6.294;2023-07-02T08:19:10;16.40;83.20
41720;DHT22;27405;53.316;-6.294;2023-07-02T08:21:36;16.40;83.00
41720;DHT22;27405;53.316;-6.294;2023-07-02T08:24:02;16.50;82.90
41720;DHT22;27405;53.316;-6.294;2023-07-02T08:26:29;16.60;82.60
41720;DHT22;27405;53.316;-6.294;2023-07-02T08:28:54;16.70;82.40
41720;DHT22;27405;53.316;-6.294;2023-07-02T08:31:20;16.80;81.70
41720;DHT22;27405;53.316;-6.294;2023-07-02T08:33:46;16.80;81.70
41720;DHT22;27405;53.316;-6.294;2023-07-02T08:36:11;16.90;81.10
41720;DHT22;27405;53.316;-6.294;2023-07-02T08:38:39;17.00;80.80
41720;DHT22;27405;53.316;-6.294;2023-07-02T08:41:07;17.00;80.50
41720;DHT22;27405;53.316;-6.294;2023-07-02T08:43:34;17.20;80.50
41720;DHT22;27405;53.316;-6.294;2023-07-02T08:46:00;17.30;79.80
41720;DHT22;27405;53.316;-6.294;2023-07-02T08:48:27;17.30;79.40
41720;DHT22;27405;53.316;-6.294;2023-07-02T08:50:55;17.40;78.90
41720;DHT22;27405;53.316;-6.294;2023-07-02T08:53:21;17.50;78.40
41720;DHT22;27405;53.316;-6.294;2023-07-02T08:55:50;17.50;77.70
41720;DHT22;27405;53.316;-6.294;2023-07-02T08:58:16;17.60;77.60
41720;DHT22;27405;53.316;-6.294;2023-07-02T09:01:05;17.70;76.90
41720;DHT22;27405;53.316;-6.294;2023-07-02T09:03:32;17.70;76.40
41720;DHT22;27405;53.316;-6.294;2023-07-02T09:05:58;17.80;76.30
41720;DHT22;27405;53.316;-6.294;2023-07-02T09:08:25;17.80;75.50
41720;DHT22;27405;53.316;-6.294;2023-07-02T09:10:50;17.80;75.10
41720;DHT22;27405;53.316;-6.294;2023-07-02T09:13:16;17.80;75.30
41720;DHT22;27405;53.316;-6.294;2023-07-02T09:15:42;17.90;75.20
41720;DHT22;27405;53.316;-6.294;2023-07-02T09:18:21;17.90;74.50
41720;DHT22;27405;53.316;-6.294;2023-07-02T09:20:50;17.90;73.90
41720;DHT22;27405;53.316;-6.294;2023-07-02T09:23:16;17.80;74.20
41720;DHT22;27405;53.316;-6.294;2023-07-02T09:25:42;17.80;74.40
41720;DHT22;27405;53.316;-6.294;2023-07-02T09:28:34;17.80;74.40
41720;DHT22;27405;53.316;-6.294;2023-07-02T09:31:00;17.80;74.00
41720;DHT22;27405;53.316;-6.294;2023-07-02T09:33:27;17.80;73.40
41720;DHT22;27405;53.316;-6.294;2023-07-02T09:35:53;17.70;73.10
41720;DHT22;27405;53.316;-6.294;2023-07-02T09:38:20;17.60;73.10
41720;DHT22;27405;53.316;-6.294;2023-07-02T09:40:47;17.50;72.90
41720;DHT22;27405;53.316;-6.294;2023-07-02T09:43:17;17.30;72.90
41720;DHT22;27405;53.316;-6.294;2023-07-02T09:45:46;17.20;72.90
41720;DHT22;27405;53.316;-6.294;2023-07-02T09:48:13;17.20;72.80
41720;DHT22;27405;53.316;-6.294;2023-07-02T09:50:47;17.30;72.70
41720;DHT22;27405;53.316;-6.294;2023-07-02T09:53:13;17.40;72.50
41720;DHT22;27405;53.316;-6.294;2023-07-02T09:55:39;17.60;72.40
41720;DHT22;27405;53.316;-6.294;2023-07-02T09:58:05;17.70;72.00
41720;DHT22;27405;53.316;-6.294;2023-07-02T10:00:31;17.80;71.30
41720;DHT22;27405;53.316;-6.294;2023-07-02T10:02:57;17.90;71.00
41720;DHT22;27405;53.316;-6.294;2023-07-02T10:05:30;18.00;70.70
41720;DHT22;27405;53.316;-6.294;2023-07-02T10:08:13;17.90;70.40
41720;DHT22;27405;53.316;-6.294;2023-07-02T10:10:39;18.00;70.50
41720;DHT22;27405;53.316;-6.294;2023-07-02T10:13:05;18.00;70.60
41720;DHT22;27405;53.316;-6.294;2023-07-02T10:15:31;18.10;70.40
41720;DHT22;27405;53.316;-6.294;2023-07-02T10:18:01;18.10;70.20
41720;DHT22;27405;53.316;-6.294;2023-07-02T10:20:40;18.10;70.40
41720;DHT22;27405;53.316;-6.294;2023-07-02T10:23:08;18.10;71.50
41720;DHT22;27405;53.316;-6.294;2023-07-02T10:25:36;18.30;70.80
41720;DHT22;27405;53.316;-6.294;2023-07-02T10:28:16;18.40;70.10
41720;DHT22;27405;53.316;-6.294;2023-07-02T10:30:42;18.40;69.80
41720;DHT22;27405;53.316;-6.294;2023-07-02T10:33:10;18.40;70.10
41720;DHT22;27405;53.316;-6.294;2023-07-02T10:35:36;18.40;70.20
41720;DHT22;27405;53.316;-6.294;2023-07-02T10:38:01;18.40;70.20
41720;DHT22;27405;53.316;-6.294;2023-07-02T10:40:28;18.30;70.20
41720;DHT22;27405;53.316;-6.294;2023-07-02T10:42:54;18.20;70.50
41720;DHT22;27405;53.316;-6.294;2023-07-02T10:45:32;18.10;71.10
41720;DHT22;27405;53.316;-6.294;2023-07-02T10:47:58;18.20;71.20
41720;DHT22;27405;53.316;-6.294;2023-07-02T10:50:24;18.30;71.40
41720;DHT22;27405;53.316;-6.294;2023-07-02T10:52:51;18.60;70.50
41720;DHT22;27405;53.316;-6.294;2023-07-02T10:55:26;18.80;69.50
41720;DHT22;27405;53.316;-6.294;2023-07-02T10:58:10;19.00;68.80
41720;DHT22;27405;53.316;-6.294;2023-07-02T11:00:50;19.10;68.10
41720;DHT22;27405;53.316;-6.294;2023-07-02T11:03:23;19.20;68.20
41720;DHT22;27405;53.316;-6.294;2023-07-02T11:05:49;19.00;67.70
41720;DHT22;27405;53.316;-6.294;2023-07-02T11:08:15;18.90;68.90
41720;DHT22;27405;53.316;-6.294;2023-07-02T11:10:41;18.80;68.40
41720;DHT22;27405;53.316;-6.294;2023-07-02T11:13:17;18.70;68.60
41720;DHT22;27405;53.316;-6.294;2023-07-02T11:15:44;18.70;68.90
41720;DHT22;27405;53.316;-6.294;2023-07-02T11:18:14;18.70;69.40
41720;DHT22;27405;53.316;-6.294;2023-07-02T11:20:42;18.80;69.40
41720;DHT22;27405;53.316;-6.294;2023-07-02T11:25:57;19.00;69.00
41720;DHT22;27405;53.316;-6.294;2023-07-02T11:28:24;19.00;68.90
41720;DHT22;27405;53.316;-6.294;2023-07-02T11:30:50;19.00;69.20
41720;DHT22;27405;53.316;-6.294;2023-07-02T11:33:15;19.10;68.70
41720;DHT22;27405;53.316;-6.294;2023-07-02T11:35:41;19.30;68.80
41720;DHT22;27405;53.316;-6.294;2023-07-02T11:38:11;19.40;68.20
41720;DHT22;27405;53.316;-6.294;2023-07-02T11:40:37;19.30;67.90
41720;DHT22;27405;53.316;-6.294;2023-07-02T11:43:03;19.20;68.50
41720;DHT22;27405;53.316;-6.294;2023-07-02T11:45:29;19.20;68.10
41720;DHT22;27405;53.316;-6.294;2023-07-02T11:47:55;19.10;67.90
41720;DHT22;27405;53.316;-6.294;2023-07-02T11:50:20;19.10;67.90
41720;DHT22;27405;53.316;-6.294;2023-07-02T11:52:46;19.00;68.00
41720;DHT22;27405;53.316;-6.294;2023-07-02T11:55:12;18.80;68.40
41720;DHT22;27405;53.316;-6.294;2023-07-02T11:57:38;18.60;69.10
41720;DHT22;27405;53.316;-6.294;2023-07-02T12:00:04;18.40;70.10
41720;DHT22;27405;53.316;-6.294;2023-07-02T12:02:30;18.40;70.60
41720;DHT22;27405;53.316;-6.294;2023-07-02T12:04:56;18.40;70.70
41720;DHT22;27405;53.316;-6.294;2023-07-02T12:07:21;18.50;70.80
41720;DHT22;27405;53.316;-6.294;2023-07-02T12:09:47;18.50;70.30
41720;DHT22;27405;53.316;-6.294;2023-07-02T12:12:13;18.50;69.90
41720;DHT22;27405;53.316;-6.294;2023-07-02T12:14:38;18.40;69.80
41720;DHT22;27405;53.316;-6.294;2023-07-02T12:17:08;18.40;69.80
41720;DHT22;27405;53.316;-6.294;2023-07-02T12:19:34;18.40;70.40
41720;DHT22;27405;53.316;-6.294;2023-07-02T12:22:00;18.60;70.80
41720;DHT22;27405;53.316;-6.294;2023-07-02T12:24:25;18.70;70.60
41720;DHT22;27405;53.316;-6.294;2023-07-02T12:26:51;18.90;70.30
41720;DHT22;27405;53.316;-6.294;2023-07-02T12:29:17;19.10;70.20
41720;DHT22;27405;53.316;-6.294;2023-07-02T12:31:42;19.40;70.00
41720;DHT22;27405;53.316;-6.294;2023-07-02T12:34:08;19.80;69.30
41720;DHT22;27405;53.316;-6.294;2023-07-02T12:36:33;20.00;68.20
41720;DHT22;27405;53.316;-6.294;2023-07-02T12:38:59;20.00;67.80
41720;DHT22;27405;53.316;-6.294;2023-07-02T12:41:25;20.00;67.90
41720;DHT22;27405;53.316;-6.294;2023-07-02T12:43:50;20.00;67.60
41720;DHT22;27405;53.316;-6.294;2023-07-02T12:46:16;19.80;67.20
41720;DHT22;27405;53.316;-6.294;2023-07-02T12:48:42;19.60;67.30
41720;DHT22;27405;53.316;-6.294;2023-07-02T12:51:07;19.40;68.10
41720;DHT22;27405;53.316;-6.294;2023-07-02T12:53:33;19.30;68.90
41720;DHT22;27405;53.316;-6.294;2023-07-02T12:55:59;19.30;69.00
41720;DHT22;27405;53.316;-6.294;2023-07-02T12:58:24;19.30;69.30
41720;DHT22;27405;53.316;-6.294;2023-07-02T13:00:50;19.30;69.00
41720;DHT22;27405;53.316;-6.294;2023-07-02T13:03:17;19.40;68.40
41720;DHT22;27405;53.316;-6.294;2023-07-02T13:05:43;19.40;66.90
41720;DHT22;27405;53.316;-6.294;2023-07-02T13:08:10;19.40;66.70
41720;DHT22;27405;53.316;-6.294;2023-07-02T13:10:36;19.30;66.20
41720;DHT22;27405;53.316;-6.294;2023-07-02T13:13:02;19.30;65.90
41720;DHT22;27405;53.316;-6.294;2023-07-02T13:15:28;19.40;65.90
41720;DHT22;27405;53.316;-6.294;2023-07-02T13:17:53;19.50;65.60
41720;DHT22;27405;53.316;-6.294;2023-07-02T13:20:19;19.50;66.00
41720;DHT22;27405;53.316;-6.294;2023-07-02T13:22:45;19.60;66.10
41720;DHT22;27405;53.316;-6.294;2023-07-02T13:25:10;19.80;66.50
41720;DHT22;27405;53.316;-6.294;2023-07-02T13:27:36;20.00;66.10
41720;DHT22;27405;53.316;-6.294;2023-07-02T13:30:02;20.10;65.80
41720;DHT22;27405;53.316;-6.294;2023-07-02T13:32:28;20.30;65.60
41720;DHT22;27405;53.316;-6.294;2023-07-02T13:34:54;20.40;65.40
41720;DHT22;27405;53.316;-6.294;2023-07-02T13:37:19;20.50;65.20
41720;DHT22;27405;53.316;-6.294;2023-07-02T13:39:46;20.50;64.50
41720;DHT22;27405;53.316;-6.294;2023-07-02T13:42:12;20.30;64.10
41720;DHT22;27405;53.316;-6.294;2023-07-02T13:44:38;20.00;64.50
41720;DHT22;27405;53.316;-6.294;2023-07-02T13:47:04;19.80;65.10
41720;DHT22;27405;53.316;-6.294;2023-07-02T13:49:30;19.70;65.90
41720;DHT22;27405;53.316;-6.294;2023-07-02T13:51:56;19.60;66.00
41720;DHT22;27405;53.316;-6.294;2023-07-02T13:54:22;19.60;65.10
41720;DHT22;27405;53.316;-6.294;2023-07-02T13:56:47;19.60;64.60
41720;DHT22;27405;53.316;-6.294;2023-07-02T13:59:14;19.60;64.60
41720;DHT22;27405;53.316;-6.294;2023-07-02T14:01:41;19.50;64.40
41720;DHT22;27405;53.316;-6.294;2023-07-02T14:04:07;19.60;65.10
41720;DHT22;27405;53.316;-6.294;2023-07-02T14:06:32;19.80;65.10
41720;DHT22;27405;53.316;-6.294;2023-07-02T14:08:58;20.00;65.20
41720;DHT22;27405;53.316;-6.294;2023-07-02T14:11:25;20.20;64.90
41720;DHT22;27405;53.316;-6.294;2023-07-02T14:13:51;20.40;64.40
41720;DHT22;27405;53.316;-6.294;2023-07-02T14:16:16;20.30;64.00
41720;DHT22;27405;53.316;-6.294;2023-07-02T14:18:42;20.30;64.60
41720;DHT22;27405;53.316;-6.294;2023-07-02T14:21:09;20.30;64.70
41720;DHT22;27405;53.316;-6.294;2023-07-02T14:23:34;20.30;64.90
41720;DHT22;27405;53.316;-6.294;2023-07-02T14:26:00;20.10;65.40
41720;DHT22;27405;53.316;-6.294;2023-07-02T14:28:26;20.10;65.20
41720;DHT22;27405;53.316;-6.294;2023-07-02T14:31:02;20.00;64.60
41720;DHT22;27405;53.316;-6.294;2023-07-02T14:33:31;19.80;66.30
41720;DHT22;27405;53.316;-6.294;2023-07-02T14:35:58;19.80;67.60
41720;DHT22;27405;53.316;-6.294;2023-07-02T14:38:25;20.20;67.50
41720;DHT22;27405;53.316;-6.294;2023-07-02T14:40:52;20.80;66.20
41720;DHT22;27405;53.316;-6.294;2023-07-02T14:43:18;21.40;65.00
41720;DHT22;27405;53.316;-6.294;2023-07-02T14:45:49;21.50;63.30
41720;DHT22;27405;53.316;-6.294;2023-07-02T14:48:15;21.30;62.90
41720;DHT22;27405;53.316;-6.294;2023-07-02T14:50:49;21.00;63.50
41720;DHT22;27405;53.316;-6.294;2023-07-02T14:53:16;20.90;63.80
41720;DHT22;27405;53.316;-6.294;2023-07-02T14:55:42;20.90;63.50
41720;DHT22;27405;53.316;-6.294;2023-07-02T14:58:09;20.80;63.60
41720;DHT22;27405;53.316;-6.294;2023-07-02T15:00:35;20.80;63.60
41720;DHT22;27405;53.316;-6.294;2023-07-02T15:03:01;20.80;63.70
41720;DHT22;27405;53.316;-6.294;2023-07-02T15:05:27;21.20;63.90
41720;DHT22;27405;53.316;-6.294;2023-07-02T15:07:53;21.60;62.20
41720;DHT22;27405;53.316;-6.294;2023-07-02T15:10:18;21.70;61.40
41720;DHT22;27405;53.316;-6.294;2023-07-02T15:12:44;21.50;61.10
41720;DHT22;27405;53.316;-6.294;2023-07-02T15:15:10;21.20;61.30